Time;durP1;ratioP1;P1;durP2;ratioP2;P2;SDS_P1;SDS_P2;PMS_P1;PMS_P2;Temp;Humidity;BMP_temperature;BMP_pressure;BME280_temperature;BME280_humidity;BME280_pressure;Samples;Min_cycle;Max_cycle;Signal;HPM_P1;HPM_P2
2022/10/20 00:00:04;;;;;;;44.17;11.73;;;;;;;;;;6275997;22;20000;-89
2022/10/20 00:02:30;;;;;;;45.42;10.73;;;;;;;;;;6303400;22;20420;-89
2022/10/20 00:04:56;;;;;;;41.42;11.20;;;;;;;;;;6276320;22;20078;-89
2022/10/20 00:07:22;;;;;;;34.63;10.65;;;;;;;;;;6303374;22;19999;-89
2022/10/20 00:09:48;;;;;;;42.40;11.60;;;;;;;;;;6304443;22;20034;-89
2022/10/20 00:12:14;;;;;;;44.60;10.35;;;;;;;;;;6302994;22;20000;-90
2022/10/20 00:14:40;;;;;;;38.65;10.43;;;;;;;;;;6302772;22;20006;-89
2022/10/20 00:17:06;;;;;;;39.53;10.15;;;;;;;;;;6275738;22;20019;-87
2022/10/20 00:19:33;;;;;;;38.17;10.80;;;;;;;;;;6303108;22;20006;-88
2022/10/20 00:21:59;;;;;;;38.88;10.25;;;;;;;;;;6303326;22;20317;-89
2022/10/20 00:24:25;;;;;;;47.88;11.18;;;;;;;;;;6302954;22;20074;-90
2022/10/20 00:26:51;;;;;;;39.10;9.73;;;;;;;;;;6276633;22;20003;-90
2022/10/20 00:29:17;;;;;;;41.88;9.90;;;;;;;;;;6302900;22;20402;-89
2022/10/20 00:31:43;;;;;;;39.97;10.57;;;;;;;;;;6275269;22;20462;-90
2022/10/20 00:34:10;;;;;;;37.75;10.70;;;;;;;;;;6276111;22;20007;-88
2022/10/20 00:36:36;;;;;;;40.28;11.00;;;;;;;;;;6302940;22;20014;-90
2022/10/20 00:39:03;;;;;;;45.78;11.30;;;;;;;;;;6276014;22;19999;-89
2022/10/20 00:41:29;;;;;;;44.88;10.48;;;;;;;;;;6275573;22;20014;-90
2022/10/20 00:44:00;;;;;;;48.05;12.07;;;;;;;;;;6303261;22;20048;-89
2022/10/20 00:46:29;;;;;;;35.75;10.45;;;;;;;;;;6303042;22;19999;-88
2022/10/20 00:48:57;;;;;;;49.92;10.70;;;;;;;;;;6275433;22;20010;-88
2022/10/20 00:51:25;;;;;;;37.50;10.90;;;;;;;;;;6304140;22;20007;-89
2022/10/20 00:53:54;;;;;;;40.70;10.43;;;;;;;;;;6303739;22;20332;-88
2022/10/20 00:56:20;;;;;;;47.33;11.48;;;;;;;;;;6303800;22;20018;-89
2022/10/20 00:58:47;;;;;;;49.42;11.55;;;;;;;;;;6275460;22;20038;-88
2022/10/20 01:01:13;;;;;;;53.35;12.13;;;;;;;;;;6302919;22;20026;-90
2022/10/20 01:03:47;;;;;;;40.85;11.70;;;;;;;;;;6303113;22;20048;-89
2022/10/20 01:06:14;;;;;;;29.38;10.27;;;;;;;;;;6275323;22;20014;-89
2022/10/20 01:08:40;;;;;;;37.75;10.38;;;;;;;;;;6302311;22;20003;-89
2022/10/20 01:11:12;;;;;;;38.22;10.88;;;;;;;;;;6302638;22;20006;-90
2022/10/20 01:13:47;;;;;;;33.60;11.73;;;;;;;;;;6275330;22;19999;-89
2022/10/20 01:16:32;;;;;;;32.90;11.32;;;;;;;;;;6302734;22;20021;-89
2022/10/20 01:19:02;;;;;;;32.95;10.82;;;;;;;;;;6275492;22;20349;-89
2022/10/20 01:21:28;;;;;;;41.17;11.07;;;;;;;;;;6302683;22;20066;-89
2022/10/20 01:23:54;;;;;;;39.33;11.88;;;;;;;;;;6276213;22;20056;-90
2022/10/20 01:26:36;;;;;;;49.63;12.00;;;;;;;;;;6274954;22;19999;-90
2022/10/20 01:29:05;;;;;;;47.05;12.35;;;;;;;;;;6302936;22;20493;-89
2022/10/20 01:31:41;;;;;;;41.20;11.68;;;;;;;;;;6274844;22;19996;-90
2022/10/20 01:34:16;;;;;;;40.63;12.40;;;;;;;;;;6302497;22;20003;-90
2022/10/20 01:36:55;;;;;;;36.25;12.02;;;;;;;;;;6302468;22;20021;-89
2022/10/20 01:39:29;;;;;;;38.95;11.68;;;;;;;;;;6275184;22;20014;-90
2022/10/20 01:41:58;;;;;;;39.70;11.38;;;;;;;;;;6276187;22;20014;-90
2022/10/20 01:44:25;;;;;;;45.03;13.10;;;;;;;;;;6276193;22;20002;-88
2022/10/20 01:46:52;;;;;;;39.08;11.23;;;;;;;;;;6302418;22;20007;-90
2022/10/20 01:49:18;;;;;;;39.83;12.02;;;;;;;;;;6275236;22;20003;-89
2022/10/20 01:51:44;;;;;;;41.00;11.30;;;;;;;;;;6302670;22;20496;-90
2022/10/20 01:54:39;;;;;;;42.05;11.32;;;;;;;;;;6302493;22;19995;-88
2022/10/20 01:57:17;;;;;;;42.60;11.45;;;;;;;;;;6282755;22;20060;-89
2022/10/20 01:59:49;;;;;;;41.28;12.52;;;;;;;;;;6275224;22;20007;-89
2022/10/20 02:02:15;;;;;;;34.65;11.65;;;;;;;;;;6275224;22;20420;-89
2022/10/20 02:04:51;;;;;;;39.35;11.75;;;;;;;;;;6274966;22;20000;-88
2022/10/20 02:07:21;;;;;;;48.20;12.90;;;;;;;;;;6274859;22;20336;-90
2022/10/20 02:09:49;;;;;;;35.72;12.40;;;;;;;;;;6274725;22;20009;-90
2022/10/20 02:12:26;;;;;;;38.45;12.23;;;;;;;;;;6275336;22;19999;-89
2022/10/20 02:14:53;;;;;;;49.42;13.88;;;;;;;;;;6274474;22;20072;-89
2022/10/20 02:17:19;;;;;;;37.35;11.10;;;;;;;;;;6275010;22;20046;-90
2022/10/20 02:19:47;;;;;;;43.97;12.48;;;;;;;;;;6302207;22;20336;-88
2022/10/20 02:22:14;;;;;;;43.13;11.10;;;;;;;;;;6302089;22;20008;-89
2022/10/20 02:24:41;;;;;;;46.27;12.00;;;;;;;;;;6275402;22;20011;-89
2022/10/20 02:27:10;;;;;;;45.50;12.30;;;;;;;;;;6274764;22;20230;-89
2022/10/20 02:29:39;;;;;;;46.17;11.65;;;;;;;;;;6274954;22;20007;-88
2022/10/20 02:32:04;;;;;;;;;;;;;;;;;;6275214;22;20010;-89
2022/10/20 02:34:30;;;;;;;66.25;12.80;;;;;;;;;;6301972;22;19899;-89
2022/10/20 02:36:57;;;;;;;49.22;11.70;;;;;;;;;;6276262;22;20072;-89
2022/10/20 02:39:24;;;;;;;47.15;12.35;;;;;;;;;;6303945;22;20037;-89
2022/10/20 02:41:50;;;;;;;43.67;13.18;;;;;;;;;;6304194;22;20344;-90
2022/10/20 02:44:17;;;;;;;46.22;12.27;;;;;;;;;;6276592;22;20332;-89
2022/10/20 02:46:43;;;;;;;47.58;12.02;;;;;;;;;;6276391;22;20003;-88
2022/10/20 02:49:09;;;;;;;49.70;11.77;;;;;;;;;;6303525;22;19999;-89
2022/10/20 02:51:35;;;;;;;40.05;10.90;;;;;;;;;;6276539;22;20042;-88
2022/10/20 02:54:01;;;;;;;44.92;11.90;;;;;;;;;;6303677;22;20024;-87
2022/10/20 02:56:27;;;;;;;47.13;11.32;;;;;;;;;;6304762;22;20011;-89
2022/10/20 02:58:53;;;;;;;35.15;10.40;;;;;;;;;;6303810;22;20007;-90
2022/10/20 03:01:21;;;;;;;33.50;11.07;;;;;;;;;;6303851;22;20008;-89
2022/10/20 03:03:47;;;;;;;40.83;11.20;;;;;;;;;;6276409;22;20026;-89
2022/10/20 03:06:14;;;;;;;31.17;10.90;;;;;;;;;;6276702;22;20007;-89
2022/10/20 03:08:41;;;;;;;36.60;10.70;;;;;;;;;;6276309;22;20007;-88
2022/10/20 03:11:07;;;;;;;50.05;12.13;;;;;;;;;;6303573;22;20004;-88
2022/10/20 03:13:33;;;;;;;44.65;12.30;;;;;;;;;;6276413;22;20053;-88
2022/10/20 03:15:59;;;;;;;46.80;11.85;;;;;;;;;;6277245;22;20023;-88
2022/10/20 03:18:25;;;;;;;53.80;11.98;;;;;;;;;;6276004;22;20451;-88
2022/10/20 03:20:52;;;;;;;32.60;11.23;;;;;;;;;;6276459;22;20015;-89
2022/10/20 03:23:18;;;;;;;33.63;10.70;;;;;;;;;;6303453;22;20003;-89
2022/10/20 03:25:44;;;;;;;37.72;11.80;;;;;;;;;;6276372;22;20092;-88
2022/10/20 03:28:10;;;;;;;41.53;11.18;;;;;;;;;;6276038;22;19995;-88
2022/10/20 03:30:36;;;;;;;44.17;12.00;;;;;;;;;;6276018;22;20093;-89
2022/10/20 03:33:02;;;;;;;55.05;11.82;;;;;;;;;;6303505;22;19999;-88
2022/10/20 03:35:28;;;;;;;48.83;11.23;;;;;;;;;;6276877;22;20011;-88
2022/10/20 03:37:54;;;;;;;41.17;11.38;;;;;;;;;;6303452;22;19999;-88
2022/10/20 03:40:20;;;;;;;39.80;11.57;;;;;;;;;;6275797;22;20003;-88
2022/10/20 03:42:47;;;;;;;40.35;11.27;;;;;;;;;;6303195;22;20003;-88
2022/10/20 03:45:13;;;;;;;46.80;13.30;;;;;;;;;;6303125;22;20077;-88
2022/10/20 03:47:39;;;;;;;38.30;12.40;;;;;;;;;;6303448;22;20045;-88
2022/10/20 03:50:05;;;;;;;42.20;12.05;;;;;;;;;;6275455;22;20006;-88
2022/10/20 03:52:31;;;;;;;42.65;11.60;;;;;;;;;;6303942;22;20509;-88
2022/10/20 03:54:57;;;;;;;38.85;10.65;;;;;;;;;;6276150;22;20003;-88
2022/10/20 03:57:23;;;;;;;42.55;11.27;;;;;;;;;;6275330;22;20102;-88
2022/10/20 03:59:49;;;;;;;34.75;9.40;;;;;;;;;;6302777;22;20049;-86
2022/10/20 04:02:32;;;;;;;40.78;10.27;;;;;;;;;;6275812;22;19999;-86
2022/10/20 04:04:58;;;;;;;38.38;10.27;;;;;;;;;;6303165;22;19996;-88
2022/10/20 04:07:24;;;;;;;35.65;9.05;;;;;;;;;;6275654;22;20331;-88
2022/10/20 04:09:50;;;;;;;34.92;9.35;;;;;;;;;;6275335;22;20339;-86
2022/10/20 04:12:16;;;;;;;33.80;9.05;;;;;;;;;;6275389;22;20428;-86
2022/10/20 04:14:42;;;;;;;39.10;8.65;;;;;;;;;;6302277;22;20003;-85
2022/10/20 04:17:08;;;;;;;32.08;9.43;;;;;;;;;;6275196;22;20018;-85
2022/10/20 04:19:34;;;;;;;31.80;7.90;;;;;;;;;;6303500;22;20665;-84
2022/10/20 04:22:01;;;;;;;36.33;7.65;;;;;;;;;;6303691;22;20022;-86
2022/10/20 04:24:27;;;;;;;23.63;6.75;;;;;;;;;;6274607;22;19999;-85
2022/10/20 04:26:53;;;;;;;31.80;8.07;;;;;;;;;;6274341;22;20026;-87
2022/10/20 04:29:19;;;;;;;27.95;7.35;;;;;;;;;;6302459;22;20007;-87
2022/10/20 04:31:45;;;;;;;40.53;7.78;;;;;;;;;;6302588;22;20044;-85
2022/10/20 04:34:11;;;;;;;25.83;6.93;;;;;;;;;;6293629;22;19999;-86
2022/10/20 04:36:37;;;;;;;19.50;6.03;;;;;;;;;;6300086;22;20034;-85
2022/10/20 04:39:05;;;;;;;27.13;6.63;;;;;;;;;;6302287;22;20003;-85
2022/10/20 04:41:31;;;;;;;;;;;;;;;;;;6303888;22;20023;-86
2022/10/20 04:43:57;;;;;;;20.90;5.90;;;;;;;;;;6302333;22;20235;-87
2022/10/20 04:46:23;;;;;;;17.35;5.15;;;;;;;;;;6302712;22;20003;-85
2022/10/20 04:48:49;;;;;;;25.23;6.43;;;;;;;;;;6299733;22;20003;-86
2022/10/20 04:51:16;;;;;;;18.65;4.50;;;;;;;;;;6298796;22;20018;-89
2022/10/20 04:53:42;;;;;;;11.63;4.97;;;;;;;;;;6301448;22;20002;-86
2022/10/20 04:56:10;;;;;;;21.90;5.03;;;;;;;;;;6274043;22;20011;-84
2022/10/20 04:58:36;;;;;;;;;;;;;;;;;;6274723;22;20072;-83
2022/10/20 05:01:03;;;;;;;17.65;5.03;;;;;;;;;;6302380;22;20314;-85
2022/10/20 05:03:29;;;;;;;23.10;4.70;;;;;;;;;;6301702;22;20000;-86
2022/10/20 05:06:06;;;;;;;15.60;4.75;;;;;;;;;;6274663;22;20218;-86
2022/10/20 05:08:32;;;;;;;19.80;5.28;;;;;;;;;;6302980;22;20074;-86
2022/10/20 05:11:00;;;;;;;19.70;4.68;;;;;;;;;;6302003;22;20451;-85
2022/10/20 05:13:26;;;;;;;14.38;4.55;;;;;;;;;;6302193;22;20301;-85
2022/10/20 05:15:52;;;;;;;15.88;3.63;;;;;;;;;;6274854;22;20053;-84
2022/10/20 05:18:18;;;;;;;15.13;3.20;;;;;;;;;;6302088;22;20447;-85
2022/10/20 05:20:44;;;;;;;12.05;3.08;;;;;;;;;;6274279;22;20071;-86
2022/10/20 05:23:10;;;;;;;8.13;2.70;;;;;;;;;;6302119;22;20439;-86
2022/10/20 05:25:37;;;;;;;9.02;2.58;;;;;;;;;;6302230;22;19999;-85
2022/10/20 05:28:03;;;;;;;11.77;1.90;;;;;;;;;;6275659;22;20034;-87
2022/10/20 05:30:29;;;;;;;12.25;2.28;;;;;;;;;;6302228;22;19995;-87
2022/10/20 05:32:55;;;;;;;10.88;2.33;;;;;;;;;;6302173;22;20068;-87
2022/10/20 05:35:21;;;;;;;9.20;1.90;;;;;;;;;;6302128;22;20354;-88
2022/10/20 05:37:47;;;;;;;15.38;1.85;;;;;;;;;;6302119;22;20074;-88
2022/10/20 05:40:13;;;;;;;4.38;1.30;;;;;;;;;;6302034;22;20003;-87
2022/10/20 05:42:39;;;;;;;12.52;1.67;;;;;;;;;;6302224;22;20436;-87
2022/10/20 05:45:06;;;;;;;5.00;1.50;;;;;;;;;;6303062;22;20079;-88
2022/10/20 05:47:33;;;;;;;13.02;1.80;;;;;;;;;;6275707;22;20317;-86
2022/10/20 05:49:59;;;;;;;16.45;2.00;;;;;;;;;;6301967;22;20003;-86
2022/10/20 05:52:25;;;;;;;9.57;1.70;;;;;;;;;;6301557;22;20312;-86
2022/10/20 05:54:51;;;;;;;3.88;1.40;;;;;;;;;;6302613;22;20027;-90
2022/10/20 05:57:17;;;;;;;4.13;1.20;;;;;;;;;;6274646;22;20032;-87
2022/10/20 05:59:43;;;;;;;5.75;1.35;;;;;;;;;;6302972;22;19999;-89
2022/10/20 06:02:10;;;;;;;4.85;1.23;;;;;;;;;;6280446;22;20078;-88
2022/10/20 06:04:36;;;;;;;7.13;1.38;;;;;;;;;;6311078;22;19999;-91
2022/10/20 06:07:04;;;;;;;6.13;1.25;;;;;;;;;;6285346;22;20130;-93
2022/10/20 06:09:31;;;;;;;7.07;1.27;;;;;;;;;;6312444;22;20015;-87
2022/10/20 06:11:59;;;;;;;5.00;0.90;;;;;;;;;;6313519;22;20061;-86
2022/10/20 06:14:26;;;;;;;14.75;1.42;;;;;;;;;;6314698;22;19999;-89
2022/10/20 06:16:53;;;;;;;3.80;1.10;;;;;;;;;;6288241;22;20011;-87
2022/10/20 06:19:20;;;;;;;5.75;1.15;;;;;;;;;;6285312;22;20003;-87
2022/10/20 06:21:46;;;;;;;2.85;0.95;;;;;;;;;;6310682;22;20013;-88
2022/10/20 06:24:12;;;;;;;4.97;1.10;;;;;;;;;;6305481;22;20007;-87
2022/10/20 06:26:39;;;;;;;3.38;1.02;;;;;;;;;;6306154;22;19995;-88
2022/10/20 06:29:10;;;;;;;4.35;1.40;;;;;;;;;;6308066;22;20321;-87
2022/10/20 06:31:47;;;;;;;2.55;0.80;;;;;;;;;;6278777;22;20382;-88
2022/10/20 06:34:17;;;;;;;2.00;0.95;;;;;;;;;;6305324;22;20010;-87
2022/10/20 06:36:43;;;;;;;9.40;1.20;;;;;;;;;;6305918;22;20007;-87
2022/10/20 06:39:15;;;;;;;2.00;0.98;;;;;;;;;;6308758;22;19995;-88
2022/10/20 06:41:41;;;;;;;4.55;1.35;;;;;;;;;;6279206;22;20010;-87
2022/10/20 06:44:08;;;;;;;4.90;1.20;;;;;;;;;;6307398;22;20003;-86
2022/10/20 06:46:35;;;;;;;7.50;1.10;;;;;;;;;;6306301;22;20010;-87
2022/10/20 06:49:03;;;;;;;4.47;1.13;;;;;;;;;;6305632;22;19995;-87
2022/10/20 06:51:29;;;;;;;8.70;1.47;;;;;;;;;;6278644;22;20286;-86
2022/10/20 06:53:55;;;;;;;35.50;2.58;;;;;;;;;;6304915;22;20432;-87
2022/10/20 06:56:22;;;;;;;14.32;2.72;;;;;;;;;;6278172;22;20011;-87
2022/10/20 06:58:49;;;;;;;10.15;2.28;;;;;;;;;;6304449;22;20420;-87
2022/10/20 07:01:17;;;;;;;9.70;1.80;;;;;;;;;;6277599;22;20008;-87
2022/10/20 07:03:44;;;;;;;6.72;2.60;;;;;;;;;;6307457;22;19995;-87
2022/10/20 07:06:13;;;;;;;12.77;2.10;;;;;;;;;;6278554;22;20448;-88
2022/10/20 07:08:39;;;;;;;;;;;;;;;;;;6279350;22;20003;-87
2022/10/20 07:11:06;;;;;;;11.80;2.17;;;;;;;;;;6305504;22;19926;-87
2022/10/20 07:13:33;;;;;;;9.68;1.52;;;;;;;;;;6277514;22;20003;-87
2022/10/20 07:15:59;;;;;;;6.93;2.13;;;;;;;;;;6277440;22;20057;-87
2022/10/20 07:18:26;;;;;;;5.75;1.80;;;;;;;;;;6304997;22;19999;-87
2022/10/20 07:20:57;;;;;;;2.65;1.20;;;;;;;;;;6304435;22;20075;-87
2022/10/20 07:23:23;;;;;;;4.32;1.15;;;;;;;;;;6306760;22;20367;-88
2022/10/20 07:25:51;;;;;;;3.40;1.10;;;;;;;;;;6304659;22;19995;-88
2022/10/20 07:28:20;;;;;;;7.30;1.33;;;;;;;;;;6279102;22;20451;-87
2022/10/20 07:30:47;;;;;;;3.60;1.52;;;;;;;;;;6306465;22;20360;-87
2022/10/20 07:33:13;;;;;;;5.60;1.45;;;;;;;;;;6278821;22;20143;-87
2022/10/20 07:35:40;;;;;;;10.15;1.80;;;;;;;;;;6281072;22;20011;-87
2022/10/20 07:38:06;;;;;;;3.25;1.42;;;;;;;;;;6306820;22;20003;-87
2022/10/20 07:40:33;;;;;;;6.65;2.08;;;;;;;;;;6304449;22;20014;-86
2022/10/20 07:42:59;;;;;;;7.78;1.92;;;;;;;;;;6276886;22;20003;-87
2022/10/20 07:45:25;;;;;;;6.65;2.00;;;;;;;;;;6279529;22;20526;-89
2022/10/20 07:47:51;;;;;;;6.47;2.10;;;;;;;;;;6307506;22;19999;-87
2022/10/20 07:50:17;;;;;;;8.75;1.90;;;;;;;;;;6306288;22;20474;-87
2022/10/20 07:52:43;;;;;;;6.68;1.55;;;;;;;;;;6306193;22;20063;-87
2022/10/20 07:55:09;;;;;;;11.38;1.80;;;;;;;;;;6278614;22;20052;-87
2022/10/20 07:57:35;;;;;;;5.05;1.98;;;;;;;;;;6305575;22;20007;-89
2022/10/20 08:00:01;;;;;;;5.43;1.70;;;;;;;;;;6278814;22;20632;-86
2022/10/20 08:02:27;;;;;;;5.80;1.85;;;;;;;;;;6306185;22;20336;-88
2022/10/20 08:04:53;;;;;;;6.70;2.00;;;;;;;;;;6279117;22;20007;-88
2022/10/20 08:07:19;;;;;;;8.13;1.98;;;;;;;;;;6305545;22;19996;-87
2022/10/20 08:09:46;;;;;;;6.72;1.92;;;;;;;;;;6278438;22;20007;-87
2022/10/20 08:12:12;;;;;;;7.50;1.90;;;;;;;;;;6305905;22;20025;-87
2022/10/20 08:14:38;;;;;;;8.57;1.75;;;;;;;;;;6278853;22;20064;-88
2022/10/20 08:17:04;;;;;;;3.80;1.70;;;;;;;;;;6275548;22;20019;-87
2022/10/20 08:19:30;;;;;;;3.30;1.70;;;;;;;;;;6304206;22;20012;-87
2022/10/20 08:21:57;;;;;;;4.38;1.60;;;;;;;;;;6304839;22;20026;-87
2022/10/20 08:24:23;;;;;;;11.82;1.75;;;;;;;;;;6303883;22;20336;-86
2022/10/20 08:26:49;;;;;;;10.85;1.80;;;;;;;;;;6275948;22;20432;-87
2022/10/20 08:29:15;;;;;;;4.68;1.65;;;;;;;;;;6303471;22;20006;-87
2022/10/20 08:31:43;;;;;;;5.40;1.70;;;;;;;;;;6277289;22;20004;-86
2022/10/20 08:34:09;;;;;;;12.38;1.88;;;;;;;;;;6303740;22;20082;-88
2022/10/20 08:36:38;;;;;;;6.10;1.90;;;;;;;;;;6302203;22;20050;-89
2022/10/20 08:39:04;;;;;;;7.57;1.67;;;;;;;;;;6275385;22;20007;-88
2022/10/20 08:41:35;;;;;;;3.28;1.58;;;;;;;;;;6276185;22;20003;-86
2022/10/20 08:44:04;;;;;;;4.82;1.55;;;;;;;;;;6303190;22;20019;-86
2022/10/20 08:46:32;;;;;;;5.00;1.83;;;;;;;;;;6275771;22;20011;-87
2022/10/20 08:48:58;;;;;;;6.68;1.67;;;;;;;;;;6302450;22;19995;-86
2022/10/20 08:51:25;;;;;;;12.32;1.77;;;;;;;;;;6275446;22;20018;-86
2022/10/20 08:53:52;;;;;;;11.88;2.45;;;;;;;;;;6302274;22;20007;-88
2022/10/20 08:56:22;;;;;;;5.95;1.60;;;;;;;;;;6275142;22;20018;-87
2022/10/20 08:58:48;;;;;;;6.60;1.80;;;;;;;;;;6302418;22;19995;-87
2022/10/20 09:01:17;;;;;;;13.52;1.52;;;;;;;;;;6303383;22;20010;-86
2022/10/20 09:03:44;;;;;;;8.90;1.40;;;;;;;;;;6303417;22;19996;-89
2022/10/20 09:06:15;;;;;;;4.90;1.73;;;;;;;;;;6275316;22;19999;-88
2022/10/20 09:08:41;;;;;;;2.80;1.50;;;;;;;;;;6304762;22;20003;-87
2022/10/20 09:11:08;;;;;;;5.45;1.65;;;;;;;;;;6301397;22;20025;-86
2022/10/20 09:13:36;;;;;;;3.42;1.10;;;;;;;;;;6302042;22;20245;-90
2022/10/20 09:16:20;;;;;;;7.78;1.52;;;;;;;;;;6301475;22;20011;-88
2022/10/20 09:18:50;;;;;;;3.72;1.33;;;;;;;;;;6301664;22;20000;-87
2022/10/20 09:21:17;;;;;;;4.03;1.50;;;;;;;;;;6275027;22;20003;-87
2022/10/20 09:23:45;;;;;;;3.13;1.50;;;;;;;;;;6304135;22;19999;-88
2022/10/20 09:26:15;;;;;;;7.45;1.90;;;;;;;;;;6275843;22;20011;-86
2022/10/20 09:28:41;;;;;;;6.75;1.75;;;;;;;;;;6303700;22;19996;-87
2022/10/20 09:31:31;;;;;;;5.75;1.60;;;;;;;;;;6274996;22;20007;-93
2022/10/20 09:33:57;;;;;;;7.20;1.60;;;;;;;;;;6274765;22;20447;-91
2022/10/20 09:36:26;;;;;;;5.57;1.70;;;;;;;;;;6274395;22;20084;-87
2022/10/20 09:38:52;;;;;;;5.47;2.05;;;;;;;;;;6274600;22;20495;-88
2022/10/20 09:41:18;;;;;;;7.97;1.98;;;;;;;;;;6301955;22;20054;-91
2022/10/20 09:43:49;;;;;;;6.68;1.90;;;;;;;;;;6303657;22;20000;-91
2022/10/20 09:46:18;;;;;;;5.40;2.40;;;;;;;;;;6275995;22;20000;-88
2022/10/20 09:48:46;;;;;;;11.45;2.65;;;;;;;;;;6304379;22;20007;-88
2022/10/20 09:51:14;;;;;;;6.18;2.78;;;;;;;;;;6305804;22;19999;-90
2022/10/20 09:54:01;;;;;;;9.23;2.70;;;;;;;;;;6307083;22;20391;-89
2022/10/20 09:56:37;;;;;;;5.53;2.85;;;;;;;;;;6303389;22;20011;-91
2022/10/20 09:59:19;;;;;;;8.98;3.22;;;;;;;;;;6304016;22;20369;-91
2022/10/20 10:01:58;;;;;;;7.50;3.30;;;;;;;;;;6277627;22;20317;-91
2022/10/20 10:04:32;;;;;;;8.80;3.00;;;;;;;;;;6304062;22;20082;-87
2022/10/20 10:06:58;;;;;;;13.75;3.13;;;;;;;;;;6276961;22;20021;-90
2022/10/20 10:09:27;;;;;;;8.23;2.90;;;;;;;;;;6277041;22;20034;-87
2022/10/20 10:11:58;;;;;;;11.18;3.08;;;;;;;;;;6304105;22;20003;-91
2022/10/20 10:14:24;;;;;;;12.73;3.45;;;;;;;;;;6276737;22;20336;-87
2022/10/20 10:16:50;;;;;;;15.23;3.00;;;;;;;;;;6275947;22;20015;-89
2022/10/20 10:19:17;;;;;;;15.90;3.20;;;;;;;;;;6277359;22;20005;-89
2022/10/20 10:21:45;;;;;;;10.75;2.60;;;;;;;;;;6305003;22;20000;-89
2022/10/20 10:24:38;;;;;;;8.75;2.53;;;;;;;;;;6276594;22;20003;-91
2022/10/20 10:27:05;;;;;;;25.65;2.78;;;;;;;;;;6252073;22;20003;-90
2022/10/20 10:29:35;;;;;;;14.43;2.60;;;;;;;;;;6303738;22;19999;-92
2022/10/20 10:32:02;;;;;;;25.33;4.07;;;;;;;;;;6303552;22;19995;-88
2022/10/20 10:34:34;;;;;;;25.75;3.65;;;;;;;;;;6276528;22;20007;-88
2022/10/20 10:37:00;;;;;;;19.10;3.47;;;;;;;;;;6275742;22;20015;-90
2022/10/20 10:39:28;;;;;;;23.20;3.15;;;;;;;;;;6303402;22;20018;-89
2022/10/20 10:42:11;;;;;;;18.50;3.00;;;;;;;;;;6275691;22;20060;-90
2022/10/20 10:44:40;;;;;;;24.23;2.95;;;;;;;;;;6276203;22;20014;-88
2022/10/20 10:47:09;;;;;;;19.33;2.55;;;;;;;;;;6303359;22;20773;-89
2022/10/20 10:49:35;;;;;;;18.42;2.97;;;;;;;;;;6303375;22;19999;-87
2022/10/20 10:52:08;;;;;;;21.27;2.80;;;;;;;;;;6275690;22;20011;-90
2022/10/20 10:54:40;;;;;;;19.85;2.92;;;;;;;;;;6275995;22;19999;-88
2022/10/20 10:57:22;;;;;;;19.70;2.85;;;;;;;;;;6303071;22;20007;-90
2022/10/20 10:59:50;;;;;;;22.80;3.08;;;;;;;;;;6275456;22;20513;-91
2022/10/20 11:02:16;;;;;;;;;;;;;;;;;;6277246;22;20052;-89
2022/10/20 11:04:45;;;;;;;20.15;2.80;;;;;;;;;;6277196;22;19925;-90
2022/10/20 11:07:14;;;;;;;16.85;2.88;;;;;;;;;;6302967;22;19999;-89
2022/10/20 11:10:04;;;;;;;18.58;2.85;;;;;;;;;;6303272;22;20003;-89
2022/10/20 11:12:33;;;;;;;19.98;2.92;;;;;;;;;;6275769;22;20003;-89
2022/10/20 11:15:19;;;;;;;20.85;3.33;;;;;;;;;;6274947;22;20027;-88
2022/10/20 11:17:45;;;;;;;16.33;3.33;;;;;;;;;;6283141;22;20325;-90
2022/10/20 11:20:19;;;;;;;15.77;3.92;;;;;;;;;;6275838;22;20466;-90
2022/10/20 11:22:54;;;;;;;19.42;3.92;;;;;;;;;;6277409;22;20003;-88
2022/10/20 11:25:25;;;;;;;20.25;3.92;;;;;;;;;;6278924;22;20008;-90
2022/10/20 11:27:51;;;;;;;20.02;4.15;;;;;;;;;;6277775;22;20003;-88
2022/10/20 11:30:20;;;;;;;17.63;4.32;;;;;;;;;;6275839;22;20003;-87
2022/10/20 11:32:46;;;;;;;19.17;4.22;;;;;;;;;;6276500;22;20439;-91
2022/10/20 11:35:12;;;;;;;20.98;4.63;;;;;;;;;;6303780;22;19999;-89
2022/10/20 11:37:50;;;;;;;18.73;3.90;;;;;;;;;;6303117;22;20104;-88
2022/10/20 11:40:36;;;;;;;23.40;3.95;;;;;;;;;;6276810;22;20003;-88
2022/10/20 11:43:34;;;;;;;19.55;4.45;;;;;;;;;;6229385;22;19999;-89
2022/10/20 11:46:06;;;;;;;11.75;3.50;;;;;;;;;;6235491;22;20008;-88
2022/10/20 11:48:35;;;;;;;17.70;4.20;;;;;;;;;;6275757;22;20006;-90
2022/10/20 11:51:19;;;;;;;19.30;3.65;;;;;;;;;;6276074;22;20003;-92
2022/10/20 11:53:59;;;;;;;18.30;3.00;;;;;;;;;;6277074;22;20003;-90
2022/10/20 11:56:41;;;;;;;16.23;3.00;;;;;;;;;;6303492;22;20011;-92
2022/10/20 11:59:26;;;;;;;16.20;3.13;;;;;;;;;;6275828;22;20503;-90
2022/10/20 12:01:55;;;;;;;22.85;3.10;;;;;;;;;;6303225;22;19995;-91
2022/10/20 12:04:27;;;;;;;11.75;2.88;;;;;;;;;;6275866;22;20052;-94
2022/10/20 12:07:12;;;;;;;11.35;2.78;;;;;;;;;;6302852;22;20002;-90
2022/10/20 12:09:38;;;;;;;15.90;2.85;;;;;;;;;;6302688;22;20007;-91
2022/10/20 12:12:11;;;;;;;19.10;3.13;;;;;;;;;;6275169;22;20006;-89
2022/10/20 12:14:40;;;;;;;11.73;3.08;;;;;;;;;;6302942;22;20003;-91
2022/10/20 12:17:15;;;;;;;12.25;2.60;;;;;;;;;;6276912;22;20019;-88
2022/10/20 12:19:41;;;;;;;14.10;2.45;;;;;;;;;;6276472;22;19999;-89
2022/10/20 12:22:14;;;;;;;8.25;2.55;;;;;;;;;;6302244;22;20228;-92
2022/10/20 12:24:40;;;;;;;25.83;3.25;;;;;;;;;;6275869;22;19999;-92
2022/10/20 12:27:09;;;;;;;14.40;2.53;;;;;;;;;;6302733;22;19999;-90
2022/10/20 12:29:35;;;;;;;14.75;2.50;;;;;;;;;;6304543;22;20057;-90
2022/10/20 12:32:20;;;;;;;17.05;2.75;;;;;;;;;;6303747;22;20003;-91
2022/10/20 12:34:47;;;;;;;17.42;2.90;;;;;;;;;;6304956;22;19999;-92
2022/10/20 12:37:17;;;;;;;12.13;2.63;;;;;;;;;;6305771;22;20015;-91
2022/10/20 12:39:44;;;;;;;13.00;2.80;;;;;;;;;;6303902;22;19995;-90
2022/10/20 12:42:19;;;;;;;14.63;2.50;;;;;;;;;;6275401;22;20035;-93
2022/10/20 12:44:46;;;;;;;10.02;2.65;;;;;;;;;;6277358;22;20010;-88
2022/10/20 12:47:18;;;;;;;18.60;2.50;;;;;;;;;;6303394;22;19999;-88
2022/10/20 12:49:51;;;;;;;16.85;2.47;;;;;;;;;;6305220;22;20005;-89
2022/10/20 12:52:19;;;;;;;13.43;2.53;;;;;;;;;;6279754;22;20417;-88
2022/10/20 12:54:46;;;;;;;14.98;2.80;;;;;;;;;;6277665;22;20011;-87
2022/10/20 12:57:30;;;;;;;13.13;3.17;;;;;;;;;;6275234;22;20359;-93
2022/10/20 12:59:57;;;;;;;14.95;2.80;;;;;;;;;;6304974;22;20002;-89
2022/10/20 13:02:22;;;;;;;9.85;2.45;;;;;;;;;;6306872;22;20032;-90
2022/10/20 13:05:07;;;;;;;17.15;2.42;;;;;;;;;;6305774;22;20335;-89
2022/10/20 13:07:48;;;;;;;16.45;2.55;;;;;;;;;;6306768;22;20002;-90
2022/10/20 13:10:29;;;;;;;13.65;2.35;;;;;;;;;;6308262;22;20065;-88
2022/10/20 13:13:01;;;;;;;11.30;2.60;;;;;;;;;;6311644;22;20000;-90
2022/10/20 13:15:49;;;;;;;10.15;2.15;;;;;;;;;;6311500;22;20011;-89
2022/10/20 13:18:22;;;;;;;25.95;2.72;;;;;;;;;;6306129;22;20439;-88
2022/10/20 13:21:19;;;;;;;10.73;2.20;;;;;;;;;;6307342;22;20003;-87
2022/10/20 13:23:58;;;;;;;13.20;2.30;;;;;;;;;;6308375;22;20023;-91
2022/10/20 13:26:27;;;;;;;9.70;2.30;;;;;;;;;;6307298;22;20074;-89
2022/10/20 13:28:55;;;;;;;16.50;2.40;;;;;;;;;;6307428;22;19999;-87
2022/10/20 13:31:30;;;;;;;14.50;2.42;;;;;;;;;;6278187;22;20018;-91
2022/10/20 13:34:15;;;;;;;10.68;2.50;;;;;;;;;;6277795;22;20053;-90
2022/10/20 13:36:44;;;;;;;13.90;2.88;;;;;;;;;;6306059;22;20008;-89
2022/10/20 13:39:35;;;;;;;13.82;2.45;;;;;;;;;;6305586;22;20301;-88
2022/10/20 13:42:08;;;;;;;11.25;2.33;;;;;;;;;;6280520;22;20007;-89
2022/10/20 13:44:52;;;;;;;15.52;2.85;;;;;;;;;;6280846;22;19999;-87
2022/10/20 13:47:22;;;;;;;21.35;3.50;;;;;;;;;;6306167;22;19995;-87
2022/10/20 13:49:51;;;;;;;22.52;3.80;;;;;;;;;;6306824;22;20019;-87
2022/10/20 13:52:17;;;;;;;15.98;2.75;;;;;;;;;;6307811;22;20082;-87
2022/10/20 13:54:47;;;;;;;20.05;3.60;;;;;;;;;;6308641;22;20436;-86
2022/10/20 13:57:40;;;;;;;19.67;4.07;;;;;;;;;;6306282;22;20446;-88
2022/10/20 14:00:17;;;;;;;17.42;4.20;;;;;;;;;;6275220;22;20010;-87
2022/10/20 14:02:52;;;;;;;19.88;4.20;;;;;;;;;;6309584;22;20010;-86
2022/10/20 14:05:20;;;;;;;22.65;4.20;;;;;;;;;;6283038;22;20049;-87
2022/10/20 14:07:46;;;;;;;15.35;4.53;;;;;;;;;;6284530;22;20027;-87
2022/10/20 14:10:33;;;;;;;18.13;3.88;;;;;;;;;;6308675;22;20338;-89
2022/10/20 14:13:01;;;;;;;18.20;4.47;;;;;;;;;;6282727;22;20352;-88
2022/10/20 14:15:29;;;;;;;18.95;4.53;;;;;;;;;;6282166;22;20011;-87
2022/10/20 14:17:59;;;;;;;14.88;3.42;;;;;;;;;;6309562;22;20070;-87
2022/10/20 14:20:25;;;;;;;20.92;3.30;;;;;;;;;;6307867;22;20003;-87
2022/10/20 14:22:53;;;;;;;14.10;3.40;;;;;;;;;;6254717;22;20094;-86
2022/10/20 14:25:20;;;;;;;19.40;3.58;;;;;;;;;;6309538;22;19996;-90
2022/10/20 14:27:46;;;;;;;16.15;3.53;;;;;;;;;;6310833;22;19995;-89
2022/10/20 14:30:17;;;;;;;21.67;3.80;;;;;;;;;;6281808;22;20027;-88
2022/10/20 14:32:43;;;;;;;14.70;3.70;;;;;;;;;;6310617;22;20000;-87
2022/10/20 14:35:17;;;;;;;16.27;3.75;;;;;;;;;;6310197;22;20015;-87
2022/10/20 14:37:56;;;;;;;15.93;4.38;;;;;;;;;;6284701;22;20397;-90
2022/10/20 14:40:32;;;;;;;20.02;4.03;;;;;;;;;;6309881;22;20002;-87
2022/10/20 14:43:06;;;;;;;16.20;3.30;;;;;;;;;;6280833;22;20034;-87